createdAt,value
2022-08-29T00:02:00.028Z,81.29
2022-08-29T00:04:27.272Z,81.40
2022-08-29T00:06:54.316Z,81.48
2022-08-29T00:09:20.736Z,81.21
2022-08-29T00:11:47.172Z,81.14
2022-08-29T00:14:20.999Z,81.45
2022-08-29T00:16:50.057Z,81.33
2022-08-29T00:19:17.987Z,80.91
2022-08-29T00:21:44.745Z,81.28
2022-08-29T00:24:13.872Z,81.17
2022-08-29T00:26:42.141Z,81.08
2022-08-29T00:29:08.646Z,80.98
2022-08-29T00:31:36.826Z,80.79
2022-08-29T00:34:03.907Z,80.87
2022-08-29T00:36:30.624Z,80.76
2022-08-29T00:39:01.125Z,80.97
2022-08-29T00:41:29.306Z,81.33
2022-08-29T00:43:55.714Z,81.73
2022-08-29T00:46:22.105Z,81.57
2022-08-29T00:48:57.091Z,81.57
2022-08-29T00:51:23.871Z,81.06
2022-08-29T00:53:57.817Z,81.58
2022-08-29T00:56:24.611Z,82.09
2022-08-29T00:58:56.120Z,81.63
2022-08-29T01:01:23.286Z,81.49
2022-08-29T01:03:51.053Z,81.62
2022-08-29T01:06:20.894Z,81.61
2022-08-29T01:08:47.913Z,81.84
2022-08-29T01:11:34.368Z,81.25
2022-08-29T01:14:01.281Z,81.85
2022-08-29T01:16:28.436Z,81.53
2022-08-29T01:18:58.039Z,81.39
2022-08-29T01:21:50.677Z,81.56
2022-08-29T01:24:35.693Z,81.35
2022-08-29T01:27:05.693Z,81.54
2022-08-29T01:29:32.110Z,81.42
2022-08-29T01:31:58.637Z,81.65
2022-08-29T01:34:27.021Z,81.65
2022-08-29T01:36:55.546Z,82.08
2022-08-29T01:39:23.421Z,82.66
2022-08-29T01:41:50.229Z,81.93
2022-08-29T01:44:22.398Z,81.88
2022-08-29T01:46:50.095Z,81.97
2022-08-29T01:49:18.921Z,81.79
2022-08-29T01:51:45.757Z,81.99
2022-08-29T01:54:12.305Z,82.25
2022-08-29T01:56:43.320Z,82.55
2022-08-29T01:59:11.503Z,82.54
2022-08-29T02:01:39.271Z,82.55
2022-08-29T02:04:07.351Z,82.64
2022-08-29T02:06:33.888Z,82.57
2022-08-29T02:09:01.104Z,82.49
2022-08-29T02:11:27.813Z,82.72
2022-08-29T02:13:55.511Z,83.10
2022-08-29T02:16:23.479Z,83.10
2022-08-29T02:18:53.343Z,82.66
2022-08-29T02:21:21.034Z,83.20
2022-08-29T02:23:53.493Z,83.36
2022-08-29T02:26:21.492Z,83.13
2022-08-29T02:28:50.432Z,83.51
2022-08-29T02:31:17.646Z,83.00
2022-08-29T02:33:46.963Z,83.18
2022-08-29T02:36:13.672Z,83.14
2022-08-29T02:38:40.458Z,84.14
2022-08-29T02:41:11.231Z,83.86
2022-08-29T02:43:40.075Z,83.64
2022-08-29T02:46:06.964Z,83.35
2022-08-29T02:48:34.594Z,83.57
2022-08-29T02:51:01.033Z,84.00
2022-08-29T02:53:31.103Z,84.33
2022-08-29T02:55:57.577Z,84.26
2022-08-29T02:58:24.818Z,84.19
2022-08-29T03:00:52.013Z,84.31
2022-08-29T03:03:18.929Z,84.17
2022-08-29T03:05:45.332Z,85.10
2022-08-29T03:08:14.238Z,84.65
2022-08-29T03:10:41.241Z,84.69
2022-08-29T03:13:07.671Z,85.04
2022-08-29T03:15:34.149Z,85.26
2022-08-29T03:18:01.284Z,85.60
2022-08-29T03:20:27.739Z,85.54
2022-08-29T03:22:54.840Z,84.74
2022-08-29T03:25:22.517Z,85.30
2022-08-29T03:27:48.953Z,85.46
2022-08-29T03:30:16.252Z,85.52
2022-08-29T03:32:43.507Z,85.96
2022-08-29T03:35:11.214Z,85.63
2022-08-29T03:37:37.890Z,85.42
2022-08-29T03:40:05.615Z,85.70
2022-08-29T03:42:32.205Z,85.53
2022-08-29T03:44:58.636Z,85.36
2022-08-29T03:47:25.169Z,85.71
2022-08-29T03:49:51.610Z,85.64
2022-08-29T03:52:17.989Z,85.58
2022-08-29T03:54:44.498Z,85.71
2022-08-29T03:57:11.853Z,85.75
2022-08-29T03:59:39.034Z,85.55
2022-08-29T04:02:05.841Z,86.27
2022-08-29T04:04:50.961Z,86.24
2022-08-29T04:07:17.697Z,86.31
2022-08-29T04:09:44.510Z,86.02
2022-08-29T04:12:11.713Z,86.27
2022-08-29T04:14:38.755Z,85.94
2022-08-29T04:17:05.606Z,85.65
2022-08-29T04:19:32.784Z,86.09
2022-08-29T04:22:01.609Z,86.11
2022-08-29T04:24:30.946Z,85.81
2022-08-29T04:26:57.480Z,85.52
2022-08-29T04:29:23.973Z,85.47
2022-08-29T04:31:52.005Z,85.62
2022-08-29T04:34:21.477Z,85.40
2022-08-29T04:36:48.281Z,85.71
2022-08-29T04:39:15.222Z,85.78
2022-08-29T04:41:42.175Z,85.69
2022-08-29T04:44:09.770Z,85.25
2022-08-29T04:46:36.301Z,85.62
2022-08-29T04:49:06.034Z,84.62
2022-08-29T04:51:42.170Z,84.68
2022-08-29T04:54:14.340Z,84.91
2022-08-29T04:56:45.308Z,84.84
2022-08-29T04:59:14.232Z,84.91
2022-08-29T05:01:42.500Z,84.84
2022-08-29T05:04:14.538Z,84.84
2022-08-29T05:06:41.380Z,84.31
2022-08-29T05:09:07.789Z,83.96
2022-08-29T05:11:34.503Z,84.11
2022-08-29T05:14:01.263Z,83.77
2022-08-29T05:16:31.868Z,84.38
2022-08-29T05:18:59.438Z,83.99
2022-08-29T05:21:27.575Z,84.25
2022-08-29T05:23:56.422Z,84.26
2022-08-29T05:26:23.529Z,83.68
2022-08-29T05:28:49.949Z,83.51
2022-08-29T05:31:22.619Z,83.83
2022-08-29T05:33:49.673Z,83.72
2022-08-29T05:36:16.141Z,83.46
2022-08-29T05:38:42.567Z,83.18
2022-08-29T05:41:08.953Z,83.49
2022-08-29T05:43:38.165Z,83.60
2022-08-29T05:46:06.139Z,83.35
2022-08-29T05:48:36.529Z,83.17
2022-08-29T05:51:05.823Z,83.03
2022-08-29T05:53:34.656Z,82.78
2022-08-29T05:56:01.082Z,83.02
2022-08-29T05:58:28.435Z,82.85
2022-08-29T06:00:54.814Z,82.50
2022-08-29T06:03:24.047Z,82.29
2022-08-29T06:05:51.686Z,81.99
2022-08-29T06:08:18.694Z,81.70
2022-08-29T06:10:51.817Z,81.69
2022-08-29T06:13:18.300Z,81.65
2022-08-29T06:15:45.554Z,81.16
2022-08-29T06:18:12.128Z,81.06
2022-08-29T06:20:39.546Z,80.89
2022-08-29T06:23:06.226Z,80.76
2022-08-29T06:25:39.927Z,80.77
2022-08-29T06:28:10.314Z,80.70
2022-08-29T06:30:37.139Z,80.43
2022-08-29T06:33:03.692Z,80.49
2022-08-29T06:35:30.127Z,80.38
2022-08-29T06:37:59.846Z,80.51
2022-08-29T06:40:27.403Z,80.36
2022-08-29T06:42:53.909Z,80.35
2022-08-29T06:45:20.303Z,80.44
2022-08-29T06:47:50.107Z,80.72
2022-08-29T06:50:17.221Z,80.66
2022-08-29T06:52:44.064Z,80.84
2022-08-29T06:55:13.674Z,81.91
2022-08-29T06:57:45.968Z,82.51
2022-08-29T07:00:22.402Z,82.70
2022-08-29T07:02:51.710Z,83.04
2022-08-29T07:05:19.671Z,83.25
2022-08-29T07:07:46.107Z,83.51
2022-08-29T07:10:22.073Z,84.10
2022-08-29T07:12:49.703Z,84.75
2022-08-29T07:15:19.750Z,85.41
2022-08-29T07:17:46.284Z,86.35
2022-08-29T07:20:13.510Z,86.10
2022-08-29T07:22:44.449Z,87.30
2022-08-29T07:25:14.513Z,87.40
2022-08-29T07:27:40.969Z,87.85
2022-08-29T07:30:07.626Z,87.75
2022-08-29T07:32:34.042Z,87.15
2022-08-29T07:35:00.579Z,86.70
2022-08-29T07:37:27.056Z,86.97
2022-08-29T07:39:56.664Z,87.15
2022-08-29T07:42:23.346Z,86.70
2022-08-29T07:44:52.443Z,86.61
2022-08-29T07:47:18.833Z,86.55
2022-08-29T07:49:45.351Z,86.69
2022-08-29T07:52:16.754Z,86.68
2022-08-29T07:54:43.201Z,87.01
2022-08-29T07:57:09.603Z,87.25
2022-08-29T07:59:36.203Z,87.75
2022-08-29T08:02:03.734Z,88.52
2022-08-29T08:04:32.979Z,88.62
2022-08-29T08:06:59.374Z,89.06
2022-08-29T08:09:25.854Z,89.64
2022-08-29T08:11:52.296Z,89.59
2022-08-29T08:14:18.792Z,89.07
2022-08-29T08:16:45.457Z,89.09
2022-08-29T08:19:13.150Z,88.92
2022-08-29T08:21:49.204Z,88.81
2022-08-29T08:24:19.358Z,89.25
2022-08-29T08:26:46.277Z,89.03
2022-08-29T08:29:16.415Z,88.44
2022-08-29T08:31:46.959Z,88.00
2022-08-29T08:34:16.463Z,88.26
2022-08-29T08:36:44.729Z,88.01
2022-08-29T08:39:11.948Z,88.60
2022-08-29T08:41:44.627Z,88.55
2022-08-29T08:44:15.863Z,89.04
2022-08-29T08:46:44.258Z,89.02
2022-08-29T08:49:14.361Z,88.52
2022-08-29T08:51:43.745Z,88.82
2022-08-29T08:54:15.001Z,88.69
2022-08-29T08:56:46.831Z,88.41
2022-08-29T08:59:17.109Z,87.83
2022-08-29T09:01:47.357Z,87.42
2022-08-29T09:04:25.445Z,87.44
2022-08-29T09:06:59.757Z,86.84
2022-08-29T09:09:35.284Z,86.71
2022-08-29T09:12:23.265Z,86.49
2022-08-29T09:14:53.201Z,86.59
2022-08-29T09:17:23.464Z,86.61
2022-08-29T09:19:53.884Z,86.73
2022-08-29T09:22:23.770Z,86.42
2022-08-29T09:24:53.747Z,85.72
2022-08-29T09:27:22.061Z,85.65
2022-08-29T09:29:49.770Z,86.04
2022-08-29T09:32:22.322Z,86.14
2022-08-29T09:37:35.612Z,85.91
2022-08-29T09:40:09.205Z,85.37
2022-08-29T09:42:37.172Z,86.46
2022-08-29T09:45:25.089Z,86.70
2022-08-29T09:48:10.274Z,87.34
2022-08-29T09:50:37.017Z,87.23
2022-08-29T09:53:09.770Z,86.12
2022-08-29T09:55:50.661Z,85.93
2022-08-29T09:58:18.403Z,85.97
2022-08-29T10:00:59.190Z,86.65
2022-08-29T10:03:26.844Z,86.87
2022-08-29T10:06:07.855Z,86.45
2022-08-29T10:08:36.475Z,85.87
2022-08-29T10:11:05.906Z,85.97
2022-08-29T10:13:46.084Z,86.80
2022-08-29T10:16:12.499Z,86.46
2022-08-29T10:18:39.164Z,85.63
2022-08-29T10:21:10.212Z,85.18
2022-08-29T10:23:46.897Z,84.42
2022-08-29T10:26:28.944Z,84.32
2022-08-29T10:29:17.335Z,82.35
2022-08-29T10:31:55.966Z,82.67
2022-08-29T10:34:25.330Z,81.08
2022-08-29T10:36:55.583Z,79.88
2022-08-29T10:39:40.786Z,80.25
2022-08-29T10:42:15.348Z,80.62
2022-08-29T10:44:44.823Z,80.32
2022-08-29T10:47:11.189Z,82.18
2022-08-29T10:49:52.814Z,78.91
2022-08-29T10:52:45.508Z,78.22
2022-08-29T10:55:30.101Z,78.02
2022-08-29T10:58:02.478Z,77.55
2022-08-29T11:00:35.337Z,78.62
2022-08-29T11:03:13.068Z,79.35
2022-08-29T11:05:43.242Z,78.92
2022-08-29T11:08:35.986Z,79.83
2022-08-29T11:11:02.508Z,81.50
2022-08-29T11:13:36.413Z,82.48
2022-08-29T11:16:07.242Z,82.17
2022-08-29T11:18:43.556Z,81.71
2022-08-29T11:21:21.003Z,79.74
2022-08-29T11:23:48.106Z,79.18
2022-08-29T11:26:29.573Z,79.61
2022-08-29T11:29:14.836Z,78.95
2022-08-29T11:31:47.377Z,78.70
2022-08-29T11:34:31.771Z,77.65
2022-08-29T11:37:01.295Z,79.67
2022-08-29T11:39:27.651Z,80.03
2022-08-29T11:41:58.451Z,77.98
2022-08-29T11:44:27.850Z,77.34
2022-08-29T11:46:56.216Z,78.47
2022-08-29T11:49:44.666Z,77.44
2022-08-29T11:52:11.264Z,78.01
2022-08-29T11:54:41.001Z,76.78
2022-08-29T11:57:10.210Z,76.06
2022-08-29T11:59:49.394Z,76.48
2022-08-29T12:02:29.180Z,75.67
2022-08-29T12:04:57.663Z,75.43
2022-08-29T12:07:36.113Z,76.63
2022-08-29T12:10:05.414Z,76.19
2022-08-29T12:12:52.126Z,74.48
2022-08-29T12:15:27.633Z,74.27
2022-08-29T12:18:03.796Z,75.20
2022-08-29T12:20:30.663Z,74.15
2022-08-29T12:22:59.615Z,73.70
2022-08-29T12:28:57.798Z,75.02
2022-08-29T12:31:27.080Z,77.27
2022-08-29T12:34:04.706Z,78.34
2022-08-29T12:36:52.540Z,78.71
2022-08-29T12:39:38.146Z,80.52
2022-08-29T12:42:16.407Z,80.75
2022-08-29T12:44:44.596Z,80.71
2022-08-29T12:47:12.426Z,81.72
2022-08-29T12:49:51.695Z,80.71
2022-08-29T12:52:28.622Z,78.61
2022-08-29T12:54:56.731Z,76.27
2022-08-29T12:57:32.063Z,73.75
2022-08-29T12:59:59.168Z,73.13
2022-08-29T13:02:28.690Z,72.53
2022-08-29T13:04:55.833Z,74.18
2022-08-29T13:07:25.114Z,74.79
2022-08-29T13:09:56.478Z,76.51
2022-08-29T13:12:30.350Z,77.18
2022-08-29T13:15:07.461Z,76.43
2022-08-29T13:17:36.090Z,78.25
2022-08-29T13:20:21.309Z,77.65
2022-08-29T13:22:47.712Z,77.23
2022-08-29T13:25:15.749Z,77.88
2022-08-29T13:27:42.451Z,78.39
2022-08-29T13:30:09.089Z,78.27
2022-08-29T13:32:36.349Z,78.98
2022-08-29T13:35:06.229Z,79.10
2022-08-29T13:37:34.694Z,80.11
2022-08-29T13:40:19.883Z,80.90
2022-08-29T13:42:47.484Z,81.37
2022-08-29T13:45:20.455Z,81.34
2022-08-29T13:47:55.613Z,81.18
2022-08-29T13:50:22.436Z,80.47
2022-08-29T13:52:56.745Z,79.66
2022-08-29T13:55:23.446Z,77.81
2022-08-29T13:57:52.274Z,76.17
2022-08-29T14:00:19.383Z,74.15
2022-08-29T14:03:01.690Z,74.19
2022-08-29T14:05:30.868Z,73.69
2022-08-29T14:07:57.326Z,73.27
2022-08-29T14:10:23.737Z,72.59
2022-08-29T14:12:50.146Z,70.03
2022-08-29T14:15:21.108Z,70.41
2022-08-29T14:17:50.876Z,69.36
2022-08-29T14:20:17.900Z,69.23
2022-08-29T14:22:44.551Z,69.43
2022-08-29T14:25:11.691Z,69.47
2022-08-29T14:27:38.661Z,70.76
2022-08-29T14:30:06.367Z,71.81
2022-08-29T14:32:36.032Z,72.82
2022-08-29T14:35:03.071Z,73.72
2022-08-29T14:37:29.527Z,75.36
2022-08-29T14:39:55.985Z,75.61
2022-08-29T14:42:24.761Z,75.73
2022-08-29T14:44:51.277Z,75.66
2022-08-29T14:47:17.919Z,76.00
2022-08-29T14:49:44.371Z,75.03
2022-08-29T14:52:15.155Z,72.60
2022-08-29T14:54:42.847Z,72.76
2022-08-29T14:57:09.680Z,72.62
2022-08-29T14:59:36.254Z,71.04
2022-08-29T15:02:03.442Z,73.26
2022-08-29T15:04:35.997Z,73.72
2022-08-29T15:07:11.730Z,73.10
2022-08-29T15:09:38.964Z,73.35
2022-08-29T15:12:09.366Z,72.63
2022-08-29T15:14:35.808Z,72.98
2022-08-29T15:17:02.857Z,72.19
2022-08-29T15:22:16.426Z,72.01
2022-08-29T15:24:43.040Z,71.95
2022-08-29T15:27:09.725Z,72.69
2022-08-29T15:29:37.341Z,73.54
2022-08-29T15:32:04.595Z,73.75
2022-08-29T15:34:31.502Z,72.96
2022-08-29T15:36:57.940Z,73.68
2022-08-29T15:39:28.444Z,74.16
2022-08-29T15:41:55.907Z,74.53
2022-08-29T15:44:25.372Z,74.33
2022-08-29T15:46:54.402Z,74.71
2022-08-29T15:49:23.434Z,74.03
2022-08-29T15:51:52.944Z,73.98
2022-08-29T15:54:19.853Z,73.91
2022-08-29T15:56:46.605Z,74.30
2022-08-29T15:59:13.603Z,74.81
2022-08-29T16:01:47.540Z,74.23
2022-08-29T16:04:17.814Z,74.90
2022-08-29T16:06:44.598Z,74.88
2022-08-29T16:09:15.555Z,74.44
2022-08-29T16:11:45.822Z,74.09
2022-08-29T16:17:02.134Z,72.70
2022-08-29T16:19:29.365Z,71.93
2022-08-29T16:22:00.097Z,71.69
2022-08-29T16:24:31.217Z,71.14
2022-08-29T16:26:58.418Z,70.64
2022-08-29T16:29:26.753Z,71.03
2022-08-29T16:31:54.037Z,71.78
2022-08-29T16:34:22.576Z,71.76
2022-08-29T16:36:52.004Z,72.13
2022-08-29T16:39:18.463Z,71.96
2022-08-29T16:41:45.257Z,72.65
2022-08-29T16:44:11.746Z,72.87
2022-08-29T16:46:38.569Z,72.98
2022-08-29T16:49:05.115Z,72.61
2022-08-29T16:51:31.838Z,72.37
2022-08-29T16:54:01.614Z,72.16
2022-08-29T16:56:28.113Z,72.03
2022-08-29T16:59:07.356Z,72.65
2022-08-29T17:01:38.291Z,73.45
2022-08-29T17:04:06.238Z,74.07
2022-08-29T17:06:32.770Z,74.61
2022-08-29T17:08:59.518Z,74.90
2022-08-29T17:11:26.316Z,74.20
2022-08-29T17:13:52.664Z,74.17
2022-08-29T17:16:19.265Z,74.23
2022-08-29T17:18:49.980Z,74.70
2022-08-29T17:21:16.533Z,75.19
2022-08-29T17:23:47.533Z,76.04
2022-08-29T17:26:16.366Z,76.69
2022-08-29T17:28:45.674Z,76.88
2022-08-29T17:31:12.804Z,77.32
2022-08-29T17:33:39.278Z,77.68
2022-08-29T17:36:05.910Z,78.13
2022-08-29T17:38:33.019Z,78.61
2022-08-29T17:41:05.232Z,78.90
2022-08-29T17:43:42.428Z,79.35
2022-08-29T17:46:09.285Z,79.79
2022-08-29T17:48:35.777Z,80.15
2022-08-29T17:51:02.176Z,80.38
2022-08-29T17:53:29.613Z,80.46
2022-08-29T17:55:56.052Z,80.58
2022-08-29T17:58:22.959Z,80.88
2022-08-29T18:00:58.768Z,80.62
2022-08-29T18:03:25.362Z,80.29
2022-08-29T18:05:51.746Z,80.08
2022-08-29T18:08:18.297Z,79.90
2022-08-29T18:10:44.771Z,80.28
2022-08-29T18:13:11.239Z,80.80
2022-08-29T18:15:37.709Z,81.09
2022-08-29T18:18:09.653Z,80.67
2022-08-29T18:20:37.474Z,80.75
2022-08-29T18:23:04.503Z,80.31
2022-08-29T18:25:30.909Z,80.13
2022-08-29T18:28:00.050Z,80.00
2022-08-29T18:30:27.591Z,79.87
2022-08-29T18:32:54.041Z,79.70
2022-08-29T18:35:20.548Z,79.72
2022-08-29T18:37:46.960Z,79.87
2022-08-29T18:40:13.578Z,80.14
2022-08-29T18:42:41.710Z,80.24
2022-08-29T18:45:09.175Z,80.42
2022-08-29T18:47:35.558Z,80.38
2022-08-29T18:50:20.573Z,80.30
2022-08-29T18:52:51.586Z,82.18
2022-08-29T18:55:18.551Z,82.47
2022-08-29T18:57:49.836Z,83.26
2022-08-29T19:00:17.033Z,83.75
2022-08-29T19:02:43.562Z,83.80
2022-08-29T19:05:10.062Z,83.30
2022-08-29T19:07:36.514Z,83.99
2022-08-29T19:10:03.789Z,83.22
2022-08-29T19:12:30.298Z,83.20
2022-08-29T19:14:56.678Z,82.97
2022-08-29T19:17:23.165Z,82.85
2022-08-29T19:20:10.130Z,82.86
2022-08-29T19:22:37.620Z,83.27
2022-08-29T19:25:05.731Z,82.96
2022-08-29T19:27:44.355Z,83.17
2022-08-29T19:30:15.227Z,83.12
2022-08-29T19:32:41.684Z,83.34
2022-08-29T19:35:10.983Z,83.27
2022-08-29T19:37:37.675Z,83.21
2022-08-29T19:40:04.548Z,83.19
2022-08-29T19:42:31.480Z,83.34
2022-08-29T19:44:58.089Z,83.64
2022-08-29T19:47:25.143Z,83.81
2022-08-29T19:49:51.716Z,83.60
2022-08-29T19:52:18.119Z,83.90
2022-08-29T19:54:44.552Z,83.73
2022-08-29T19:57:16.141Z,83.80
2022-08-29T19:59:46.518Z,84.25
2022-08-29T20:02:15.419Z,84.16
2022-08-29T20:04:41.897Z,84.48
2022-08-29T20:07:08.884Z,84.40
2022-08-29T20:09:36.031Z,84.47
2022-08-29T20:12:03.660Z,84.47
2022-08-29T20:14:35.129Z,84.27
2022-08-29T20:17:07.527Z,84.55
2022-08-29T20:19:36.821Z,84.33
2022-08-29T20:22:06.050Z,84.51
2022-08-29T20:24:33.497Z,86.21
2022-08-29T20:27:00.222Z,87.98
2022-08-29T20:29:27.143Z,88.89
2022-08-29T20:31:55.968Z,89.05
2022-08-29T20:34:22.496Z,90.26
2022-08-29T20:37:07.832Z,90.13
2022-08-29T20:39:38.060Z,90.71
2022-08-29T20:42:08.151Z,90.51
2022-08-29T20:44:41.735Z,89.72
2022-08-29T20:47:09.262Z,89.62
2022-08-29T20:49:40.845Z,89.33
2022-08-29T20:52:11.425Z,89.84
2022-08-29T20:54:38.879Z,89.87
2022-08-29T20:57:06.441Z,90.66
2022-08-29T20:59:34.751Z,89.75
2022-08-29T21:02:02.983Z,90.06
2022-08-29T21:04:48.085Z,90.28
2022-08-29T21:07:17.880Z,91.12
2022-08-29T21:09:50.219Z,91.26
2022-08-29T21:12:17.055Z,91.90
2022-08-29T21:14:43.596Z,93.30
2022-08-29T21:17:13.587Z,92.14
2022-08-29T21:19:40.609Z,92.99
2022-08-29T21:22:07.967Z,93.67
2022-08-29T21:24:35.266Z,94.67
2022-08-29T21:27:01.675Z,94.48
2022-08-29T21:29:28.519Z,94.69
2022-08-29T21:31:55.069Z,94.88
2022-08-29T21:34:21.916Z,94.70
2022-08-29T21:36:52.077Z,95.76
2022-08-29T21:39:21.563Z,95.39
2022-08-29T21:41:54.716Z,96.00
2022-08-29T21:44:21.159Z,97.08
2022-08-29T21:46:48.719Z,96.31
2022-08-29T21:49:21.411Z,96.45
2022-08-29T21:51:48.087Z,96.71
2022-08-29T21:54:16.051Z,98.25
2022-08-29T21:56:43.126Z,98.38
2022-08-29T21:59:10.117Z,98.77
2022-08-29T22:01:39.586Z,98.20
2022-08-29T22:04:10.288Z,97.49
2022-08-29T22:06:39.792Z,97.21
2022-08-29T22:09:09.274Z,97.77
2022-08-29T22:11:37.360Z,97.28
2022-08-29T22:14:05.034Z,97.43
2022-08-29T22:16:31.688Z,98.75
2022-08-29T22:19:11.599Z,99.33
2022-08-29T22:21:42.817Z,99.47
2022-08-29T22:24:10.544Z,99.26
2022-08-29T22:26:37.802Z,99.20
2022-08-29T22:29:05.361Z,98.89
2022-08-29T22:31:32.103Z,98.95
2022-08-29T22:34:02.921Z,100.00
2022-08-29T22:36:34.690Z,100.00
2022-08-29T22:39:01.161Z,100.00
2022-08-29T22:41:27.589Z,100.00
2022-08-29T22:44:11.377Z,99.54
2022-08-29T22:46:44.469Z,100.00
2022-08-29T22:49:17.748Z,100.00
2022-08-29T22:51:46.969Z,100.00
2022-08-29T22:54:31.781Z,100.00
2022-08-29T22:56:59.551Z,99.95
2022-08-29T22:59:26.010Z,100.00
2022-08-29T23:01:52.478Z,100.00
2022-08-29T23:04:19.135Z,100.00
2022-08-29T23:06:45.786Z,100.00
2022-08-29T23:09:12.950Z,100.00
2022-08-29T23:11:39.670Z,100.00
2022-08-29T23:14:06.234Z,100.00
2022-08-29T23:16:34.486Z,100.00
2022-08-29T23:19:01.606Z,100.00
2022-08-29T23:21:28.634Z,100.00
2022-08-29T23:23:55.359Z,100.00
2022-08-29T23:26:21.733Z,100.00
2022-08-29T23:28:48.150Z,100.00
2022-08-29T23:31:15.421Z,100.00
2022-08-29T23:33:42.214Z,100.00
2022-08-29T23:36:08.868Z,100.00
2022-08-29T23:38:35.733Z,100.00
2022-08-29T23:41:02.262Z,100.00
2022-08-29T23:43:29.590Z,100.00
2022-08-29T23:46:03.325Z,100.00
2022-08-29T23:48:29.798Z,100.00
2022-08-29T23:50:56.327Z,100.00
2022-08-29T23:53:23.394Z,100.00
2022-08-29T23:55:50.423Z,100.00
2022-08-29T23:58:17.388Z,100.00
